Terminal Aerodrome Forecast
Issued by NWS Portland, ME

Home | Current Version | Previous Version | Text Only | Print | Product List | Glossary On
Versions: 1 2 3 4 5 6 7 8 9 10 11 12 13 14 15 16 17
000
FTUS41 KGYX 271401 AAA
TAFPWM
TAF AMD
KPWM 271401Z 2714/2812 16012KT P6SM SCT050 BKN100
     FM280000 18010KT 6SM HZ SCT010 SCT050=

USA.gov is the U.S. government's official web portal to all federal, state and local government web resources and services.